Time;durP1;ratioP1;P1;durP2;ratioP2;P2;SDS_P1;SDS_P2;PMS_P1;PMS_P2;Temp;Humidity;BMP_temperature;BMP_pressure;BME280_temperature;BME280_humidity;BME280_pressure;Samples;Min_cycle;Max_cycle;Signal;HPM_P1;HPM_P2
2022/08/05 00:01:40;;;;;;;12.02;4.30;;;20.90;99.90;;;;;;5052098;28;20384;-56
2022/08/05 00:04:05;;;;;;;11.45;4.18;;;20.90;99.90;;;;;;5052089;28;20032;-57
2022/08/05 00:06:31;;;;;;;13.88;4.35;;;20.90;99.90;;;;;;5050845;28;20444;-57
2022/08/05 00:08:59;;;;;;;12.32;3.97;;;20.80;99.90;;;;;;5051560;28;20025;-56
2022/08/05 00:11:24;;;;;;;15.60;4.65;;;20.80;99.90;;;;;;5051708;28;20047;-56
2022/08/05 00:13:50;;;;;;;13.35;3.83;;;20.70;99.90;;;;;;5051774;28;20112;-56
2022/08/05 00:16:16;;;;;;;13.48;4.63;;;20.70;99.90;;;;;;5051817;28;20025;-56
2022/08/05 00:18:46;;;;;;;15.15;4.95;;;20.70;99.90;;;;;;5052170;28;20032;-56
2022/08/05 00:21:13;;;;;;;13.82;4.68;;;20.70;99.90;;;;;;5051640;28;20033;-56
2022/08/05 00:23:40;;;;;;;14.85;4.78;;;20.60;99.90;;;;;;5051565;28;20033;-57
2022/08/05 00:26:06;;;;;;;15.43;4.40;;;20.50;99.90;;;;;;5051830;28;20021;-57
2022/08/05 00:28:33;;;;;;;16.02;4.75;;;20.40;99.90;;;;;;5052141;28;20025;-56
2022/08/05 00:30:59;;;;;;;14.98;4.68;;;20.40;99.90;;;;;;5051667;28;20033;-56
2022/08/05 00:33:25;;;;;;;17.52;4.88;;;20.40;99.90;;;;;;5051719;28;20029;-56
2022/08/05 00:35:51;;;;;;;13.45;4.80;;;20.50;99.90;;;;;;5051692;28;20440;-57
2022/08/05 00:38:17;;;;;;;15.75;4.70;;;20.60;99.90;;;;;;5051344;28;20036;-57
2022/08/05 00:40:51;;;;;;;14.50;4.78;;;20.50;99.90;;;;;;5052078;28;20025;-56
2022/08/05 00:43:18;;;;;;;15.40;4.70;;;20.50;99.90;;;;;;5051477;28;20072;-57
2022/08/05 00:45:44;;;;;;;18.50;5.35;;;20.50;99.90;;;;;;5051513;28;20037;-56
2022/08/05 00:48:11;;;;;;;16.65;4.97;;;20.40;99.90;;;;;;5051433;28;20025;-56
2022/08/05 00:50:42;;;;;;;16.60;5.13;;;20.30;99.90;;;;;;5051683;28;20036;-56
2022/08/05 00:53:09;;;;;;;18.45;5.18;;;20.20;99.90;;;;;;5050871;28;20490;-56
2022/08/05 00:55:34;;;;;;;17.77;5.15;;;20.20;99.90;;;;;;5051285;28;20021;-56
2022/08/05 00:58:00;;;;;;;13.52;4.70;;;20.10;99.90;;;;;;5053023;28;20032;-57
2022/08/05 01:00:28;;;;;;;16.15;4.82;;;20.10;99.90;;;;;;5055300;28;20378;-56
2022/08/05 01:02:55;;;;;;;16.35;4.63;;;20.10;99.90;;;;;;5055076;28;20029;-56
2022/08/05 01:05:21;;;;;;;15.82;4.63;;;20.20;99.90;;;;;;5055150;28;20031;-56
2022/08/05 01:07:47;;;;;;;15.55;4.70;;;20.20;99.90;;;;;;5054739;28;20408;-56
2022/08/05 01:10:17;;;;;;;14.95;4.60;;;20.20;99.90;;;;;;5054932;28;20021;-56
2022/08/05 01:12:47;;;;;;;15.77;4.75;;;20.30;99.90;;;;;;5055364;28;20100;-57
2022/08/05 01:15:19;;;;;;;14.77;4.40;;;20.30;99.90;;;;;;5055098;28;20067;-57
2022/08/05 01:17:51;;;;;;;15.23;4.00;;;20.30;99.90;;;;;;5054702;28;20029;-57
2022/08/05 01:20:45;;;;;;;15.25;4.68;;;20.20;99.90;;;;;;5055163;28;20029;-57
2022/08/05 01:23:56;;;;;;;12.70;4.13;;;20.20;99.90;;;;;;5054976;28;20041;-57
2022/08/05 01:26:43;;;;;;;17.02;4.32;;;20.20;99.90;;;;;;5055171;28;20401;-57
2022/08/05 01:29:30;;;;;;;18.52;4.93;;;20.10;99.90;;;;;;5054854;28;20024;-57
2022/08/05 01:32:02;;;;;;;18.10;4.50;;;20.10;99.90;;;;;;5055141;28;20048;-57
2022/08/05 01:34:41;;;;;;;16.63;4.32;;;20.10;99.90;;;;;;5054234;28;20025;-57
2022/08/05 01:37:14;;;;;;;14.48;3.97;;;20.10;99.90;;;;;;5054456;28;20448;-57
2022/08/05 01:39:43;;;;;;;15.73;4.13;;;20.20;99.90;;;;;;5054538;28;20017;-57
2022/08/05 01:42:13;;;;;;;17.48;4.25;;;20.20;99.90;;;;;;5054428;28;20040;-56
2022/08/05 01:44:39;;;;;;;13.43;4.32;;;20.20;99.90;;;;;;5054243;28;20127;-56
2022/08/05 01:47:07;;;;;;;17.17;4.53;;;20.10;99.90;;;;;;5054610;28;20050;-56
2022/08/05 01:49:35;;;;;;;14.80;4.10;;;20.10;99.90;;;;;;5054488;28;20024;-56
2022/08/05 01:52:02;;;;;;;17.27;4.65;;;20.10;99.90;;;;;;5054142;28;20029;-56
2022/08/05 01:54:38;;;;;;;15.38;4.00;;;20.10;99.90;;;;;;5054217;28;20417;-56
2022/08/05 01:57:05;;;;;;;14.65;3.95;;;20.10;99.90;;;;;;5054264;28;20470;-56
2022/08/05 01:59:33;;;;;;;16.98;4.13;;;20.20;99.90;;;;;;5054585;28;20108;-56
2022/08/05 02:02:00;;;;;;;11.25;3.75;;;20.20;99.90;;;;;;5054144;28;20029;-57
2022/08/05 02:04:28;;;;;;;14.55;4.10;;;20.20;99.90;;;;;;5054124;28;20021;-57
2022/08/05 02:06:54;;;;;;;16.30;4.20;;;20.20;99.90;;;;;;5053811;28;20083;-56
2022/08/05 02:09:20;;;;;;;19.98;4.80;;;20.20;99.90;;;;;;5052884;28;20025;-56
2022/08/05 02:12:04;;;;;;;15.65;4.15;;;20.20;99.90;;;;;;5054272;28;20121;-56
2022/08/05 02:14:36;;;;;;;14.77;4.47;;;20.20;99.90;;;;;;5054076;28;20402;-56
2022/08/05 02:17:13;;;;;;;19.13;4.38;;;20.10;99.90;;;;;;5053789;28;20478;-56
2022/08/05 02:19:48;;;;;;;14.63;3.85;;;20.20;99.90;;;;;;5053603;28;20021;-56
2022/08/05 02:22:19;;;;;;;14.98;4.22;;;20.10;99.90;;;;;;5053896;28;20029;-57
2022/08/05 02:24:50;;;;;;;14.23;3.85;;;20.10;99.90;;;;;;5054186;28;20021;-56
2022/08/05 02:27:17;;;;;;;16.10;4.25;;;20.10;99.90;;;;;;5053702;28;20116;-57
2022/08/05 02:29:43;;;;;;;16.15;4.50;;;20.10;99.90;;;;;;5052408;28;20556;-57
2022/08/05 02:32:12;;;;;;;16.90;4.15;;;20.00;99.90;;;;;;5053490;28;20478;-57
2022/08/05 02:34:38;;;;;;;22.85;4.38;;;20.10;99.90;;;;;;5053433;28;20013;-57
2022/08/05 02:37:07;;;;;;;15.52;4.25;;;20.10;99.90;;;;;;5053654;28;20029;-57
2022/08/05 02:39:37;;;;;;;14.50;3.40;;;20.00;99.90;;;;;;5053769;28;20028;-57
2022/08/05 02:42:04;;;;;;;15.45;3.70;;;20.00;99.90;;;;;;5053377;28;20036;-57
2022/08/05 02:44:33;;;;;;;13.80;3.90;;;20.10;99.90;;;;;;5053276;28;20195;-57
2022/08/05 02:46:59;;;;;;;18.85;4.47;;;20.10;99.90;;;;;;5053315;28;20017;-57
2022/08/05 02:49:29;;;;;;;19.15;3.75;;;20.10;99.90;;;;;;5053388;28;20028;-57
2022/08/05 02:51:56;;;;;;;16.48;4.65;;;20.10;99.90;;;;;;5053253;28;20116;-56
2022/08/05 02:54:22;;;;;;;14.65;3.65;;;20.10;99.90;;;;;;5053192;28;20025;-56
2022/08/05 02:56:50;;;;;;;16.58;3.70;;;20.20;99.90;;;;;;5053094;28;20025;-57
2022/08/05 02:59:17;;;;;;;16.17;4.18;;;20.20;99.90;;;;;;5053588;28;20044;-57
2022/08/05 03:01:44;;;;;;;20.23;4.03;;;20.20;99.90;;;;;;5053147;28;20032;-56
2022/08/05 03:04:13;;;;;;;18.63;4.25;;;20.20;99.90;;;;;;5052706;28;20032;-57
2022/08/05 03:06:42;;;;;;;16.05;4.18;;;20.20;99.90;;;;;;5053050;28;20029;-57
2022/08/05 03:09:12;;;;;;;15.73;4.00;;;20.20;99.90;;;;;;5053293;28;20103;-57
2022/08/05 03:11:41;;;;;;;18.85;4.43;;;20.20;99.90;;;;;;5053154;28;20478;-57
2022/08/05 03:14:07;;;;;;;17.85;4.00;;;20.10;99.90;;;;;;5052801;28;20389;-57
2022/08/05 03:16:32;;;;;;;19.77;4.15;;;20.10;99.90;;;;;;5052939;28;20034;-57
2022/08/05 03:19:00;;;;;;;15.02;3.90;;;20.10;99.90;;;;;;5052644;28;20029;-57
2022/08/05 03:21:26;;;;;;;23.15;4.40;;;20.10;99.90;;;;;;5052380;28;20437;-56
2022/08/05 03:23:52;;;;;;;17.33;4.10;;;20.10;99.90;;;;;;5052735;28;20025;-57
2022/08/05 03:26:18;;;;;;;15.05;3.80;;;20.10;99.90;;;;;;5052551;28;20051;-57
2022/08/05 03:28:44;;;;;;;17.42;4.20;;;20.10;99.90;;;;;;5052755;28;20025;-57
2022/08/05 03:31:10;;;;;;;15.27;3.72;;;20.10;99.90;;;;;;5052832;28;20033;-57
2022/08/05 03:33:37;;;;;;;20.50;4.20;;;20.10;99.90;;;;;;5052106;28;20025;-56
2022/08/05 03:36:04;;;;;;;15.40;3.75;;;20.10;99.90;;;;;;5053074;28;20045;-57
2022/08/05 03:38:29;;;;;;;17.90;4.50;;;20.10;99.90;;;;;;5052359;28;20021;-57
2022/08/05 03:40:55;;;;;;;20.00;5.05;;;20.00;99.90;;;;;;5052373;28;20405;-57
2022/08/05 03:43:24;;;;;;;15.70;3.95;;;20.00;99.90;;;;;;5052349;28;20183;-57
2022/08/05 03:45:54;;;;;;;15.25;3.95;;;20.00;99.90;;;;;;5052246;28;20040;-57
2022/08/05 03:48:22;;;;;;;17.48;4.20;;;20.00;99.90;;;;;;5052143;28;20104;-58
2022/08/05 03:50:58;;;;;;;16.35;4.10;;;19.90;99.90;;;;;;5052135;28;20107;-57
2022/08/05 03:53:51;;;;;;;17.05;4.32;;;20.00;99.90;;;;;;5052174;28;20036;-57
2022/08/05 03:56:32;;;;;;;19.92;4.45;;;19.90;99.90;;;;;;5052241;28;20490;-57
2022/08/05 03:59:06;;;;;;;17.58;4.07;;;19.90;99.90;;;;;;5051939;28;20021;-57
2022/08/05 04:01:36;;;;;;;17.52;4.43;;;19.90;99.90;;;;;;5051740;28;20033;-57
2022/08/05 04:04:03;;;;;;;22.20;4.70;;;19.90;99.90;;;;;;5052337;28;20029;-58
2022/08/05 04:06:32;;;;;;;18.02;4.20;;;19.90;99.90;;;;;;5051935;28;20039;-57
2022/08/05 04:08:58;;;;;;;19.15;4.68;;;19.90;99.90;;;;;;5051975;28;20021;-57
2022/08/05 04:11:24;;;;;;;19.80;4.60;;;19.80;99.90;;;;;;5051914;28;20025;-58
2022/08/05 04:13:50;;;;;;;20.80;4.30;;;19.80;99.90;;;;;;5051932;28;20029;-58
2022/08/05 04:16:16;;;;;;;15.60;4.35;;;19.70;99.90;;;;;;5051946;28;20021;-57
2022/08/05 04:18:44;;;;;;;17.60;4.57;;;19.70;99.90;;;;;;5051918;28;20027;-58
2022/08/05 04:21:10;;;;;;;22.77;4.40;;;19.70;99.90;;;;;;5051866;28;20029;-57
2022/08/05 04:23:36;;;;;;;16.23;4.47;;;19.70;99.90;;;;;;5051774;28;20033;-58
2022/08/05 04:26:03;;;;;;;18.30;4.95;;;19.60;99.90;;;;;;5051770;28;20040;-58
2022/08/05 04:28:29;;;;;;;18.77;4.47;;;19.60;99.90;;;;;;5051753;28;20031;-58
2022/08/05 04:30:54;;;;;;;17.20;4.30;;;19.60;99.90;;;;;;5051275;28;20033;-58
2022/08/05 04:33:20;;;;;;;18.73;5.30;;;19.60;99.90;;;;;;5054535;28;20179;-58
2022/08/05 04:35:46;;;;;;;19.77;5.00;;;19.50;99.90;;;;;;5055874;28;20432;-58
2022/08/05 04:38:12;;;;;;;19.73;4.50;;;19.50;99.90;;;;;;5055666;28;20040;-57
2022/08/05 04:40:39;;;;;;;22.33;4.60;;;19.50;99.90;;;;;;5055712;28;20032;-58
2022/08/05 04:43:05;;;;;;;22.33;4.65;;;19.50;99.90;;;;;;5055799;28;20041;-58
2022/08/05 04:45:32;;;;;;;17.45;4.60;;;19.50;99.90;;;;;;5055344;28;20516;-58
2022/08/05 04:48:07;;;;;;;18.13;4.03;;;19.50;99.90;;;;;;5055671;28;20021;-58
2022/08/05 04:50:46;;;;;;;20.73;4.65;;;19.40;99.90;;;;;;5055483;28;20036;-58
2022/08/05 04:53:13;;;;;;;19.15;4.63;;;19.40;99.90;;;;;;5055742;28;20061;-58
2022/08/05 04:55:40;;;;;;;12.65;3.47;;;19.50;99.90;;;;;;5055320;28;20021;-58
2022/08/05 04:58:07;;;;;;;17.77;4.18;;;19.40;99.90;;;;;;5055408;28;20024;-58
2022/08/05 05:00:35;;;;;;;14.73;3.83;;;19.50;99.90;;;;;;5055188;28;20021;-57
2022/08/05 05:03:02;;;;;;;15.50;3.85;;;19.50;99.90;;;;;;5055316;28;20056;-57
2022/08/05 05:05:28;;;;;;;12.00;3.47;;;19.50;99.90;;;;;;5055285;28;20098;-57
2022/08/05 05:07:58;;;;;;;16.88;4.20;;;19.50;99.90;;;;;;5055282;28;20099;-58
2022/08/05 05:10:24;;;;;;;17.83;3.97;;;19.50;99.90;;;;;;5055057;28;20457;-58
2022/08/05 05:12:49;;;;;;;16.52;4.30;;;19.40;99.90;;;;;;5055286;28;20025;-57
2022/08/05 05:15:15;;;;;;;14.25;3.90;;;19.50;99.90;;;;;;5054922;28;20028;-57
2022/08/05 05:17:45;;;;;;;14.70;3.85;;;19.50;99.90;;;;;;5054216;28;20406;-58
2022/08/05 05:20:12;;;;;;;16.55;4.10;;;19.60;99.90;;;;;;5054968;28;20025;-58
2022/08/05 05:22:38;;;;;;;20.95;4.75;;;19.60;99.90;;;;;;5054950;28;20032;-57
2022/08/05 05:25:04;;;;;;;21.35;4.63;;;19.60;99.90;;;;;;5054774;28;20029;-57
2022/08/05 05:27:32;;;;;;;16.35;4.40;;;19.70;99.90;;;;;;5054784;28;20055;-58
2022/08/05 05:29:57;;;;;;;16.13;4.22;;;19.70;99.90;;;;;;5054540;28;20490;-58
2022/08/05 05:32:23;;;;;;;14.35;4.05;;;19.80;99.90;;;;;;5054597;28;20077;-57
2022/08/05 05:34:49;;;;;;;18.13;4.32;;;19.80;99.90;;;;;;5053492;28;20117;-58
2022/08/05 05:37:15;;;;;;;14.50;4.38;;;19.80;99.90;;;;;;5054753;28;20367;-58
2022/08/05 05:39:41;;;;;;;19.95;4.82;;;19.90;99.90;;;;;;5054619;28;20116;-58
2022/08/05 05:42:07;;;;;;;20.08;4.90;;;20.00;99.90;;;;;;5055062;28;20052;-58
2022/08/05 05:44:33;;;;;;;17.73;4.00;;;20.00;99.90;;;;;;5053881;28;20085;-58
2022/08/05 05:46:59;;;;;;;18.85;4.93;;;20.00;99.90;;;;;;5054572;28;20021;-58
2022/08/05 05:49:25;;;;;;;12.93;3.88;;;20.10;99.90;;;;;;5054896;28;20397;-58
2022/08/05 05:51:51;;;;;;;21.65;4.18;;;20.10;99.90;;;;;;5054451;28;20579;-58
2022/08/05 05:54:17;;;;;;;19.40;4.40;;;20.20;99.90;;;;;;5054483;28;20025;-58
2022/08/05 05:56:43;;;;;;;16.42;4.35;;;20.30;99.90;;;;;;5054857;28;20074;-58
2022/08/05 05:59:09;;;;;;;15.10;3.88;;;20.30;99.90;;;;;;5054033;28;20021;-58
2022/08/05 06:01:36;;;;;;;15.90;3.90;;;20.40;99.90;;;;;;5054274;28;20036;-58
2022/08/05 06:04:02;;;;;;;16.10;4.40;;;20.40;99.90;;;;;;5054615;28;20082;-58
2022/08/05 06:06:28;;;;;;;13.95;4.20;;;20.50;99.90;;;;;;5054204;28;20029;-59
2022/08/05 06:08:54;;;;;;;19.88;4.22;;;20.60;99.90;;;;;;5054304;28;20036;-58
2022/08/05 06:11:20;;;;;;;13.48;3.70;;;20.80;99.90;;;;;;5053674;28;20033;-58
2022/08/05 06:13:46;;;;;;;14.68;3.60;;;20.90;99.90;;;;;;5054418;28;20086;-59
2022/08/05 06:16:11;;;;;;;14.35;3.67;;;21.10;99.90;;;;;;5054116;28;20481;-56
2022/08/05 06:18:37;;;;;;;11.57;3.30;;;21.30;99.90;;;;;;5053918;28;20025;-56
2022/08/05 06:21:03;;;;;;;12.80;3.60;;;21.50;99.90;;;;;;5053891;28;20035;-58
2022/08/05 06:23:30;;;;;;;18.23;4.20;;;21.40;99.90;;;;;;5053723;28;20013;-57
2022/08/05 06:25:56;;;;;;;12.75;3.58;;;21.60;99.90;;;;;;5054055;28;20338;-57
2022/08/05 06:28:22;;;;;;;15.50;3.88;;;21.80;99.90;;;;;;5053779;28;20019;-57
2022/08/05 06:30:47;;;;;;;11.30;3.08;;;22.00;99.90;;;;;;5053540;28;20029;-59
2022/08/05 06:33:13;;;;;;;15.27;3.38;;;22.20;99.90;;;;;;5053679;28;20032;-57
2022/08/05 06:35:39;;;;;;;12.48;3.50;;;22.40;99.90;;;;;;5053706;28;20060;-58
2022/08/05 06:38:05;;;;;;;13.98;3.10;;;22.40;99.90;;;;;;5053829;28;20503;-57
2022/08/05 06:40:31;;;;;;;12.98;3.13;;;22.40;99.90;;;;;;5053340;28;20041;-58
2022/08/05 06:42:56;;;;;;;11.02;3.40;;;22.50;99.90;;;;;;5053287;28;20559;-57
2022/08/05 06:45:22;;;;;;;15.55;3.30;;;23.00;99.90;;;;;;5053431;28;20024;-58
2022/08/05 06:47:48;;;;;;;14.75;3.45;;;23.70;99.90;;;;;;5053529;28;20040;-58
2022/08/05 06:50:14;;;;;;;14.10;3.42;;;23.50;99.90;;;;;;5053733;28;20025;-58
2022/08/05 06:52:39;;;;;;;14.70;3.53;;;23.90;99.90;;;;;;5053103;28;20124;-57
2022/08/05 06:55:06;;;;;;;13.20;3.35;;;23.70;99.90;;;;;;5052260;28;20049;-58
2022/08/05 06:57:32;;;;;;;12.50;3.40;;;23.50;99.90;;;;;;5053175;28;20037;-57
2022/08/05 06:59:57;;;;;;;9.82;3.20;;;23.50;99.90;;;;;;5053608;28;20025;-58
2022/08/05 07:02:23;;;;;;;12.43;3.63;;;23.50;99.90;;;;;;5053081;28;20033;-58
2022/08/05 07:04:49;;;;;;;10.00;3.15;;;23.40;99.90;;;;;;5052863;28;20029;-58
2022/08/05 07:07:14;;;;;;;8.98;2.78;;;23.40;99.90;;;;;;5052593;28;20032;-58
2022/08/05 07:09:40;;;;;;;11.20;3.05;;;23.70;99.90;;;;;;5052486;28;20036;-58
2022/08/05 07:12:06;;;;;;;17.20;3.55;;;24.20;99.90;;;;;;5052774;28;20087;-58
2022/08/05 07:17:16;;;;;;;12.65;3.22;;;25.00;99.90;;;;;;5053088;28;20036;-58
2022/08/05 07:19:42;;;;;;;9.35;2.90;;;26.10;99.90;;;;;;5052710;28;20025;-58
2022/08/05 07:22:07;;;;;;;14.75;3.38;;;25.70;99.90;;;;;;5052525;28;20024;-58
2022/08/05 07:24:33;;;;;;;13.65;3.53;;;26.30;99.90;;;;;;5052230;28;20029;-58
2022/08/05 07:26:59;;;;;;;10.38;3.20;;;26.10;99.90;;;;;;5052463;28;20025;-58
2022/08/05 07:29:25;;;;;;;10.38;3.08;;;25.90;99.90;;;;;;5052806;28;20052;-58
2022/08/05 07:31:50;;;;;;;11.68;3.55;;;25.70;99.90;;;;;;5052508;28;20460;-58
2022/08/05 07:34:16;;;;;;;16.33;3.55;;;26.20;99.90;;;;;;5052379;28;20481;-58
2022/08/05 07:36:42;;;;;;;11.85;3.53;;;26.60;99.90;;;;;;5052396;28;20032;-59
2022/08/05 07:39:09;;;;;;;10.80;3.30;;;26.80;99.90;;;;;;5051998;28;20334;-58
2022/08/05 07:41:35;;;;;;;11.55;3.50;;;27.10;99.90;;;;;;5052350;28;20032;-58
2022/08/05 07:44:03;;;;;;;12.23;3.55;;;27.90;99.90;;;;;;5052612;28;20052;-58
2022/08/05 07:46:30;;;;;;;11.75;3.30;;;28.20;99.90;;;;;;5052296;28;20432;-58
2022/08/05 07:48:57;;;;;;;11.70;3.40;;;28.30;99.90;;;;;;5052127;28;20032;-58
2022/08/05 07:51:23;;;;;;;13.60;3.38;;;28.70;99.90;;;;;;5052306;28;20029;-58
2022/08/05 07:53:49;;;;;;;9.68;3.28;;;29.60;99.90;;;;;;5051303;28;20083;-58
2022/08/05 07:56:15;;;;;;;10.15;3.00;;;30.00;99.90;;;;;;5052010;28;20110;-58
2022/08/05 07:58:40;;;;;;;9.70;3.03;;;30.40;99.90;;;;;;5051379;28;20032;-58
2022/08/05 08:01:06;;;;;;;10.00;3.00;;;30.60;99.90;;;;;;5052284;28;20111;-58
2022/08/05 08:03:32;;;;;;;9.68;3.20;;;30.80;99.90;;;;;;5051851;28;20029;-58
2022/08/05 08:05:57;;;;;;;8.88;3.38;;;30.80;99.90;;;;;;5051994;28;20386;-58
2022/08/05 08:08:23;;;;;;;11.07;3.15;;;30.90;99.90;;;;;;5051415;28;20162;-58
2022/08/05 08:10:49;;;;;;;8.48;3.40;;;30.90;99.90;;;;;;5051746;28;20104;-58
2022/08/05 08:13:15;;;;;;;10.02;3.33;;;31.40;99.90;;;;;;5051566;28;20041;-58
2022/08/05 08:15:41;;;;;;;8.52;2.95;;;32.50;98.80;;;;;;5050440;28;20440;-58
2022/08/05 08:18:07;;;;;;;9.93;3.22;;;32.60;97.90;;;;;;5051835;28;20025;-58
2022/08/05 08:20:33;;;;;;;9.27;3.35;;;32.00;97.80;;;;;;5051782;28;20025;-58
2022/08/05 08:22:59;;;;;;;8.57;3.30;;;31.70;98.30;;;;;;5051333;28;20028;-58
2022/08/05 08:25:29;;;;;;;10.13;2.97;;;31.80;98.70;;;;;;5051799;28;20079;-58
2022/08/05 08:27:55;;;;;;;12.18;3.38;;;32.80;96.60;;;;;;5051673;28;20043;-58
2022/08/05 08:30:21;;;;;;;9.35;3.10;;;32.60;96.70;;;;;;5051844;28;20099;-58
2022/08/05 08:32:47;;;;;;;10.00;3.30;;;31.90;97.40;;;;;;5051548;28;20037;-58
2022/08/05 08:35:13;;;;;;;10.25;3.35;;;31.70;98.10;;;;;;5051553;28;20025;-58
2022/08/05 08:37:39;;;;;;;8.20;2.92;;;31.90;97.30;;;;;;5051052;28;20052;-59
2022/08/05 08:40:05;;;;;;;8.85;3.00;;;31.70;97.90;;;;;;5051682;28;20419;-59
2022/08/05 08:42:32;;;;;;;8.02;3.30;;;31.60;97.60;;;;;;5051557;28;20120;-58
2022/08/05 08:44:59;;;;;;;9.50;3.08;;;31.60;97.50;;;;;;5051705;28;20460;-60
2022/08/05 08:47:26;;;;;;;7.07;3.00;;;32.70;95.50;;;;;;5051507;28;20025;-60
2022/08/05 08:49:55;;;;;;;11.65;3.40;;;33.30;94.30;;;;;;5051592;28;20033;-60
2022/08/05 08:52:28;;;;;;;7.40;3.50;;;33.60;93.40;;;;;;5051040;28;20033;-60
2022/08/05 08:54:54;;;;;;;8.68;2.92;;;33.30;93.50;;;;;;5051431;28;20405;-60
2022/08/05 08:57:20;;;;;;;9.32;3.05;;;32.90;93.40;;;;;;5051456;28;20029;-60
2022/08/05 08:59:46;;;;;;;10.25;3.33;;;32.60;93.40;;;;;;5051771;28;20482;-60
2022/08/05 09:02:13;;;;;;;12.25;3.20;;;32.60;93.60;;;;;;5051072;28;20055;-60
2022/08/05 09:04:39;;;;;;;7.75;3.00;;;32.60;94.20;;;;;;5051245;28;20539;-60
2022/08/05 09:07:08;;;;;;;9.88;3.38;;;32.80;93.90;;;;;;5050970;28;20017;-59
2022/08/05 09:09:35;;;;;;;8.88;3.20;;;32.80;93.50;;;;;;5051297;28;20084;-60
2022/08/05 09:12:07;;;;;;;12.38;3.72;;;32.60;93.40;;;;;;5050934;28;20040;-60
2022/08/05 09:14:34;;;;;;;9.90;3.17;;;32.70;93.40;;;;;;5049881;28;20496;-60
2022/08/05 09:17:02;;;;;;;11.93;3.53;;;32.80;93.20;;;;;;5051344;28;20271;-60
2022/08/05 09:19:28;;;;;;;11.85;3.08;;;32.90;93.10;;;;;;5053339;28;20079;-63
2022/08/05 09:21:54;;;;;;;8.25;3.00;;;33.00;92.80;;;;;;5054592;28;20025;-60
2022/08/05 09:24:20;;;;;;;7.95;2.78;;;33.20;93.00;;;;;;5053318;28;20025;-60
2022/08/05 09:26:49;;;;;;;8.90;2.95;;;33.40;92.50;;;;;;5053913;28;20104;-60
2022/08/05 09:29:14;;;;;;;8.35;3.58;;;33.50;92.10;;;;;;5054809;28;20026;-60
2022/08/05 09:31:43;;;;;;;10.00;3.40;;;33.30;92.30;;;;;;5054702;28;20037;-59
2022/08/05 09:34:10;;;;;;;7.53;3.17;;;33.20;92.10;;;;;;5054754;28;20025;-60
2022/08/05 09:36:42;;;;;;;9.48;3.05;;;33.20;92.30;;;;;;5054567;28;20086;-60
2022/08/05 09:39:10;;;;;;;9.18;3.30;;;33.10;92.20;;;;;;5054889;28;20463;-60
2022/08/05 09:41:56;;;;;;;8.57;3.30;;;33.10;92.10;;;;;;5054630;28;20032;-60
2022/08/05 09:44:44;;;;;;;11.65;3.63;;;32.90;92.30;;;;;;5054530;28;20105;-60
2022/08/05 09:47:14;;;;;;;13.13;3.88;;;32.60;92.60;;;;;;5054134;28;20036;-60
2022/08/05 09:49:48;;;;;;;10.75;3.50;;;32.60;92.30;;;;;;5054200;28;20381;-60
2022/08/05 09:52:29;;;;;;;10.23;3.70;;;32.40;92.50;;;;;;5054398;28;20115;-60
2022/08/05 09:55:10;;;;;;;8.50;3.17;;;32.20;92.70;;;;;;5054317;28;20049;-60
2022/08/05 09:57:40;;;;;;;12.18;2.88;;;32.10;92.90;;;;;;5054607;28;20048;-60
2022/08/05 10:00:10;;;;;;;9.80;3.58;;;31.80;93.00;;;;;;5054172;28;20028;-60
2022/08/05 10:02:39;;;;;;;9.35;3.30;;;31.70;92.90;;;;;;5054345;28;20029;-60
2022/08/05 10:05:17;;;;;;;10.55;3.47;;;31.60;93.30;;;;;;5053855;28;20025;-60
2022/08/05 10:07:54;;;;;;;9.77;3.20;;;31.60;93.30;;;;;;5054453;28;20359;-60
2022/08/05 10:10:23;;;;;;;10.30;3.38;;;31.60;93.90;;;;;;5054181;28;20410;-61
2022/08/05 10:12:57;;;;;;;10.20;3.28;;;31.40;93.50;;;;;;5054021;28;20044;-60
2022/08/05 10:15:35;;;;;;;8.35;3.75;;;31.40;94.00;;;;;;5053848;28;20499;-60
2022/08/05 10:18:14;;;;;;;9.82;3.40;;;31.20;93.70;;;;;;5052418;28;20108;-59
2022/08/05 10:21:02;;;;;;;9.10;3.70;;;31.20;93.80;;;;;;5054055;28;20037;-60
2022/08/05 10:23:32;;;;;;;11.32;3.42;;;31.30;93.70;;;;;;5054324;28;20373;-60
2022/08/05 10:26:00;;;;;;;10.02;3.53;;;31.20;93.60;;;;;;5053883;28;20025;-59
2022/08/05 10:28:28;;;;;;;8.40;3.42;;;31.20;93.80;;;;;;5053780;28;20025;-60
2022/08/05 10:30:55;;;;;;;13.25;3.80;;;31.10;93.90;;;;;;5052469;28;20056;-59
2022/08/05 10:33:22;;;;;;;10.57;3.70;;;31.10;93.70;;;;;;5053288;28;20040;-60
2022/08/05 10:35:52;;;;;;;11.25;3.40;;;31.10;94.10;;;;;;5053585;28;20516;-60
2022/08/05 10:38:20;;;;;;;8.75;3.65;;;30.90;94.20;;;;;;5053581;28;20024;-60
2022/08/05 10:40:53;;;;;;;8.48;3.40;;;30.90;93.80;;;;;;5054114;28;20025;-60
2022/08/05 10:43:58;;;;;;;6.38;2.97;;;30.90;93.90;;;;;;5053197;28;20135;-60
2022/08/05 10:46:45;;;;;;;10.60;3.20;;;31.00;94.00;;;;;;5052150;28;20417;-60
2022/08/05 10:49:12;;;;;;;11.45;3.40;;;30.90;94.10;;;;;;5053289;28;20535;-59
2022/08/05 10:51:46;;;;;;;6.88;2.80;;;30.90;94.10;;;;;;5053271;28;20045;-60
2022/08/05 10:54:12;;;;;;;9.18;3.58;;;31.00;94.40;;;;;;5051852;28;20466;-59
2022/08/05 10:56:58;;;;;;;10.05;3.67;;;30.80;93.70;;;;;;5053292;28;20041;-59
2022/08/05 10:59:27;;;;;;;11.25;3.55;;;30.80;94.10;;;;;;5053321;28;20056;-59
2022/08/05 11:02:11;;;;;;;9.02;3.17;;;31.00;94.20;;;;;;5052881;28;20439;-59
2022/08/05 11:04:53;;;;;;;7.75;3.60;;;31.30;94.00;;;;;;5052954;28;20174;-59
2022/08/05 11:07:20;;;;;;;9.20;3.85;;;31.40;93.90;;;;;;5053033;28;20121;-60
2022/08/05 11:09:48;;;;;;;12.30;3.65;;;31.50;93.50;;;;;;5052941;28;20047;-59
2022/08/05 11:12:23;;;;;;;11.18;3.67;;;31.60;94.00;;;;;;5053128;28;20127;-60
2022/08/05 11:15:08;;;;;;;10.35;3.65;;;31.70;93.00;;;;;;5052900;28;20482;-60
2022/08/05 11:17:37;;;;;;;10.13;3.55;;;31.80;93.00;;;;;;5051267;28;20025;-60
2022/08/05 11:20:27;;;;;;;12.00;3.50;;;31.80;93.40;;;;;;5052781;28;20032;-60
2022/08/05 11:22:53;;;;;;;10.02;3.60;;;31.90;93.50;;;;;;5052567;28;20648;-59
2022/08/05 11:25:37;;;;;;;11.85;3.70;;;31.90;92.90;;;;;;5053076;28;20021;-59
2022/08/05 11:28:10;;;;;;;11.93;3.60;;;31.90;92.90;;;;;;5052461;28;20040;-60
2022/08/05 11:30:57;;;;;;;9.73;3.67;;;32.00;92.50;;;;;;5052292;28;20390;-60
2022/08/05 11:33:51;;;;;;;11.07;3.42;;;31.90;93.00;;;;;;5052545;28;20112;-59
2022/08/05 11:36:39;;;;;;;12.93;3.75;;;32.00;92.70;;;;;;5052488;28;20490;-59
2022/08/05 11:39:07;;;;;;;9.70;3.50;;;32.20;93.00;;;;;;5048273;28;20068;-59
2022/08/05 11:41:34;;;;;;;9.15;3.45;;;32.20;92.70;;;;;;5052550;28;20495;-59
2022/08/05 11:44:09;;;;;;;10.05;3.45;;;32.20;92.80;;;;;;5052414;28;20102;-60
2022/08/05 11:46:36;;;;;;;8.80;3.35;;;32.20;92.40;;;;;;5052221;28;20092;-60
2022/08/05 11:49:04;;;;;;;7.72;3.08;;;32.20;92.60;;;;;;5052725;28;20029;-59
2022/08/05 11:51:30;;;;;;;6.45;3.20;;;32.20;92.40;;;;;;5052267;28;20398;-60
2022/08/05 11:53:57;;;;;;;8.15;3.20;;;32.20;92.10;;;;;;5052276;28;20048;-59
2022/08/05 11:56:23;;;;;;;8.60;3.35;;;32.20;92.40;;;;;;5052000;28;20092;-60
2022/08/05 11:58:50;;;;;;;11.82;3.80;;;32.30;92.40;;;;;;5052165;28;20052;-59
2022/08/05 12:01:18;;;;;;;9.45;3.72;;;32.30;91.90;;;;;;5052229;28;20021;-60
2022/08/05 12:03:50;;;;;;;9.40;3.58;;;32.20;91.90;;;;;;5052003;28;20040;-60
2022/08/05 12:06:22;;;;;;;10.60;3.80;;;32.20;92.10;;;;;;5052030;28;20073;-60
2022/08/05 12:08:56;;;;;;;10.63;3.55;;;32.20;92.10;;;;;;5051935;28;20021;-62
2022/08/05 12:11:24;;;;;;;6.57;3.15;;;32.20;92.40;;;;;;5051827;28;20044;-60
2022/08/05 12:14:16;;;;;;;6.95;3.17;;;32.20;92.40;;;;;;5051968;28;20040;-59
2022/08/05 12:16:45;;;;;;;8.23;3.25;;;32.30;92.30;;;;;;5051269;28;20102;-60
2022/08/05 12:19:11;;;;;;;9.48;3.40;;;32.40;92.40;;;;;;5052060;28;20037;-60
2022/08/05 12:21:48;;;;;;;9.07;3.45;;;32.20;92.40;;;;;;5051976;28;20036;-60
2022/08/05 12:24:17;;;;;;;9.85;3.60;;;32.20;92.10;;;;;;5051992;28;20386;-59
2022/08/05 12:26:51;;;;;;;7.97;3.50;;;32.20;92.60;;;;;;5052007;28;20032;-60
2022/08/05 12:29:18;;;;;;;9.00;2.88;;;32.20;92.40;;;;;;5050499;28;20025;-60
2022/08/05 12:31:59;;;;;;;7.80;2.80;;;32.00;92.00;;;;;;5052077;28;20383;-59
2022/08/05 12:34:33;;;;;;;13.65;3.00;;;31.80;92.30;;;;;;5051952;28;20397;-59
2022/08/05 12:37:10;;;;;;;10.18;2.92;;;31.90;92.50;;;;;;5051932;28;20081;-59
2022/08/05 12:39:37;;;;;;;10.65;2.80;;;32.00;92.50;;;;;;5051662;28;20041;-59
2022/08/05 12:42:11;;;;;;;9.25;3.00;;;31.90;92.40;;;;;;5051763;28;20067;-59
2022/08/05 12:44:38;;;;;;;6.65;2.75;;;32.00;92.30;;;;;;5051202;28;20049;-60
2022/08/05 12:47:04;;;;;;;12.05;3.20;;;32.10;92.10;;;;;;5051833;28;20052;-60
2022/08/05 12:49:50;;;;;;;5.80;2.78;;;32.20;92.30;;;;;;5052086;28;20025;-60
2022/08/05 12:52:18;;;;;;;7.78;2.80;;;32.20;91.80;;;;;;5051694;28;20086;-59